Time;durP1;ratioP1;P1;durP2;ratioP2;P2;SDS_P1;SDS_P2;PMS_P1;PMS_P2;Temp;Humidity;BMP_temperature;BMP_pressure;BME280_temperature;BME280_humidity;BME280_pressure;Samples;Min_cycle;Max_cycle;Signal;HPM_P1;HPM_P2
2024/01/04 00:03:24;;;;;;;0.15;0.05;;;;;;;9.96;79.83;98370.41;10386175;28;20050;-64
2024/01/04 00:08:26;;;;;;;0.52;0.10;;;;;;;10.03;79.34;98365.78;10386620;28;20073;-65
2024/01/04 00:13:27;;;;;;;1.58;0.20;;;;;;;10.12;79.30;98367.16;10420956;28;20052;-65
2024/01/04 00:18:28;;;;;;;3.53;0.20;;;;;;;10.10;79.51;98367.34;10425807;28;20037;-65
2024/01/04 00:23:34;;;;;;;0.20;0.00;;;;;;;10.10;79.57;98369.22;10417989;28;20499;-65
2024/01/04 00:28:36;;;;;;;0.32;0.00;;;;;;;10.15;79.36;98379.28;10408056;28;20107;-66
2024/01/04 00:33:37;;;;;;;1.50;0.10;;;;;;;10.10;79.48;98366.53;10419186;28;20369;-66
2024/01/04 00:38:39;;;;;;;0.32;0.03;;;;;;;10.04;79.65;98368.25;10417241;28;20516;-67
2024/01/04 00:43:42;;;;;;;0.10;0.00;;;;;;;10.05;79.40;98379.81;10413780;28;20143;-67
2024/01/04 00:48:44;;;;;;;0.90;0.00;;;;;;;10.00;79.25;98375.09;10417032;28;20048;-67
2024/01/04 00:53:46;;;;;;;1.92;0.10;;;;;;;10.01;78.66;98368.72;10418421;28;20059;-66
2024/01/04 00:58:47;;;;;;;1.55;0.10;;;;;;;9.98;78.34;98384.44;10417499;28;20065;-67
2024/01/04 01:03:49;;;;;;;1.45;0.00;;;;;;;9.95;78.60;98382.97;10423480;28;20526;-68
2024/01/04 01:08:50;;;;;;;0.47;0.10;;;;;;;9.97;78.35;98398.88;10428698;28;20110;-68
2024/01/04 01:13:52;;;;;;;0.00;0.00;;;;;;;10.00;78.01;98417.25;10434188;28;20047;-66
2024/01/04 01:18:53;;;;;;;0.15;0.00;;;;;;;10.03;77.63;98428.38;10426543;28;20106;-65
2024/01/04 01:23:55;;;;;;;0.00;0.00;;;;;;;10.09;77.15;98443.59;10416220;28;20054;-66
2024/01/04 01:28:56;;;;;;;1.55;0.10;;;;;;;10.10;77.18;98439.03;10414449;28;20519;-65
2024/01/04 01:33:58;;;;;;;0.93;0.10;;;;;;;10.18;77.03;98459.41;10420816;28;20049;-65
2024/01/04 01:38:59;;;;;;;2.17;0.22;;;;;;;10.23;76.63;98438.91;10419098;28;20059;-65
2024/01/04 01:44:01;;;;;;;0.73;0.03;;;;;;;10.23;76.57;98454.19;10411736;28;20496;-65
2024/01/04 01:49:02;;;;;;;0.17;0.00;;;;;;;10.30;76.07;98454.97;10417628;28;20048;-65
2024/01/04 01:54:05;;;;;;;0.00;0.00;;;;;;;10.35;76.18;98455.16;10412716;28;20053;-65
2024/01/04 01:59:06;;;;;;;0.32;0.00;;;;;;;10.39;75.83;98495.81;10414454;28;20511;-65
2024/01/04 02:04:18;;;;;;;1.88;0.30;;;;;;;10.06;76.84;98504.94;10418177;28;20037;-65
2024/01/04 02:09:20;;;;;;;0.05;0.00;;;;;;;9.38;78.52;98493.00;10413352;28;20072;-66
2024/01/04 02:14:21;;;;;;;0.20;0.00;;;;;;;9.12;79.19;98481.34;10398370;28;20060;-65
2024/01/04 02:19:24;;;;;;;0.20;0.00;;;;;;;9.09;79.14;98489.81;10412971;28;20048;-66
2024/01/04 02:24:26;;;;;;;0.55;0.55;;;;;;;9.13;79.00;98508.97;10414934;28;20141;-66
2024/01/04 02:29:27;;;;;;;1.98;0.47;;;;;;;9.22;78.92;98528.31;10414867;28;20041;-65
2024/01/04 02:34:30;;;;;;;0.22;0.00;;;;;;;9.32;78.67;98542.94;10412822;28;20045;-65
2024/01/04 02:39:31;;;;;;;0.22;0.00;;;;;;;9.29;78.92;98547.91;10425020;28;20037;-65
2024/01/04 02:44:33;;;;;;;0.00;0.00;;;;;;;9.28;78.88;98556.97;10428611;28;20037;-65
2024/01/04 02:49:34;;;;;;;0.17;0.00;;;;;;;9.40;78.67;98565.16;10421789;28;20124;-65
2024/01/04 02:54:36;;;;;;;0.10;0.00;;;;;;;9.48;78.45;98579.16;10419581;28;20400;-65
2024/01/04 02:59:37;;;;;;;0.00;0.00;;;;;;;9.50;78.19;98589.69;10399650;28;20393;-65
2024/01/04 03:04:42;;;;;;;0.00;0.00;;;;;;;9.51;77.90;98602.88;10422693;28;20041;-65
2024/01/04 03:09:43;;;;;;;0.00;0.00;;;;;;;9.58;78.10;98594.81;10411680;28;20066;-65
2024/01/04 03:14:45;;;;;;;0.00;0.00;;;;;;;9.68;77.80;98611.28;10421649;28;20052;-66
2024/01/04 03:19:46;;;;;;;0.40;0.00;;;;;;;9.73;77.50;98613.31;10403416;28;20052;-65
2024/01/04 03:24:47;;;;;;;0.03;0.00;;;;;;;9.80;77.84;98614.09;10420649;28;20049;-65
2024/01/04 03:29:50;;;;;;;0.43;0.00;;;;;;;9.77;77.61;98601.09;10419703;28;20612;-65
2024/01/04 03:34:51;;;;;;;1.40;0.00;;;;;;;9.87;77.91;98608.69;10419886;28;20049;-64
2024/01/04 03:39:53;;;;;;;0.08;0.08;;;;;;;9.84;77.74;98619.88;10422722;28;20048;-70
2024/01/04 03:44:55;;;;;;;0.00;0.00;;;;;;;9.92;77.55;98631.19;10422433;28;20045;-69
2024/01/04 03:49:56;;;;;;;0.13;0.10;;;;;;;9.98;77.13;98632.19;10420459;28;20056;-69
2024/01/04 03:54:58;;;;;;;0.85;0.00;;;;;;;9.99;77.63;98641.06;10419584;28;20053;-68
2024/01/04 04:00:01;;;;;;;0.00;0.00;;;;;;;9.96;77.38;98652.22;10419433;28;20049;-65
2024/01/04 04:05:03;;;;;;;3.67;0.30;;;;;;;10.02;77.63;98664.78;10407491;28;20064;-64
2024/01/04 04:10:05;;;;;;;0.40;0.00;;;;;;;10.00;77.68;98675.75;10418560;28;20060;-69
2024/01/04 04:15:08;;;;;;;0.00;0.00;;;;;;;10.02;77.50;98688.94;10416889;28;20053;-69
2024/01/04 04:20:10;;;;;;;0.00;0.00;;;;;;;10.04;77.58;98703.81;10413349;28;20049;-67
2024/01/04 04:25:11;;;;;;;0.00;0.00;;;;;;;10.14;77.20;98703.34;10400809;28;20534;-65
2024/01/04 04:30:13;;;;;;;0.70;0.00;;;;;;;10.19;77.05;98710.75;10423073;28;20125;-65
2024/01/04 04:35:15;;;;;;;0.10;0.00;;;;;;;10.19;77.25;98716.13;10418081;28;20052;-66
2024/01/04 04:40:16;;;;;;;0.10;0.00;;;;;;;10.28;77.12;98707.59;10415385;28;20052;-67
2024/01/04 04:45:18;;;;;;;0.20;0.00;;;;;;;10.28;76.71;98717.53;10417113;28;20065;-68
2024/01/04 04:50:19;;;;;;;0.85;0.00;;;;;;;10.28;77.15;98731.78;10440960;28;20050;-65
2024/01/04 04:55:21;;;;;;;0.28;0.00;;;;;;;10.33;77.08;98741.94;10447528;28;20071;-62
2024/01/04 05:00:22;;;;;;;2.60;0.25;;;;;;;10.31;76.75;98744.00;10454440;28;20056;-62
2024/01/04 05:05:24;;;;;;;0.00;0.00;;;;;;;10.40;76.67;98753.44;10453090;28;20049;-61
2024/01/04 05:10:25;;;;;;;0.00;0.00;;;;;;;10.38;76.92;98757.38;10455555;28;20888;-63
2024/01/04 05:15:27;;;;;;;1.45;0.00;;;;;;;10.40;76.40;98766.06;10454468;28;20052;-63
2024/01/04 05:20:28;;;;;;;0.00;0.00;;;;;;;10.39;76.58;98784.03;10450589;28;20057;-62
2024/01/04 05:25:30;;;;;;;0.00;0.00;;;;;;;10.42;76.80;98802.41;10453408;28;20051;-63
2024/01/04 05:30:31;;;;;;;0.00;0.00;;;;;;;10.49;76.58;98800.53;10454931;28;20065;-64
2024/01/04 05:35:32;;;;;;;0.08;0.00;;;;;;;10.46;76.79;98811.69;10458049;28;20223;-65
2024/01/04 05:40:34;;;;;;;0.28;0.00;;;;;;;10.55;76.43;98817.66;10453723;28;20045;-63
2024/01/04 05:45:35;;;;;;;0.88;0.00;;;;;;;10.52;76.41;98826.97;10457286;28;20132;-62
2024/01/04 05:50:37;;;;;;;0.45;0.08;;;;;;;10.57;76.29;98836.25;10448749;28;20100;-62
2024/01/04 05:55:38;;;;;;;0.20;0.10;;;;;;;10.46;76.63;98848.47;10467331;28;20033;-63
2024/01/04 06:00:39;;;;;;;0.20;0.10;;;;;;;10.43;76.26;98865.03;10416735;28;20060;-66
2024/01/04 06:05:41;;;;;;;1.75;0.03;;;;;;;10.31;76.40;98878.28;10398219;28;20046;-69
2024/01/04 06:10:43;;;;;;;0.80;0.10;;;;;;;10.10;76.95;98888.19;10414459;28;20504;-69
2024/01/04 06:15:45;;;;;;;0.60;0.25;;;;;;;10.02;77.10;98887.59;10424673;28;20845;-68
2024/01/04 06:20:47;;;;;;;0.43;0.10;;;;;;;10.01;77.17;98897.53;10424635;28;20569;-69
2024/01/04 06:25:49;;;;;;;2.03;0.38;;;;;;;10.01;77.13;98915.47;10424805;28;20045;-67
2024/01/04 06:30:50;;;;;;;0.60;0.10;;;;;;;10.09;76.77;98913.41;10417498;28;20045;-67
2024/01/04 06:35:52;;;;;;;2.38;0.17;;;;;;;10.16;76.97;98937.56;10421519;28;20060;-70
2024/01/04 06:40:58;;;;;;;0.85;0.22;;;;;;;9.89;77.68;98960.91;10423145;28;20060;-70
2024/01/04 06:46:01;;;;;;;0.45;0.17;;;;;;;9.70;78.35;98970.59;10430240;28;20063;-66
2024/01/04 06:51:03;;;;;;;0.90;0.10;;;;;;;9.78;77.99;98962.34;10426520;28;20047;-70
2024/01/04 06:56:05;;;;;;;0.40;0.00;;;;;;;9.65;78.44;98975.75;10433003;28;20115;-69
2024/01/04 07:01:07;;;;;;;1.08;0.38;;;;;;;9.63;78.41;98973.25;10437766;28;20057;-69
2024/01/04 07:06:08;;;;;;;0.30;0.00;;;;;;;9.60;78.59;98972.84;10439495;28;20063;-70
2024/01/04 07:11:10;;;;;;;0.10;0.00;;;;;;;9.59;78.63;98971.19;10433591;28;20283;-69
2024/01/04 07:16:11;;;;;;;0.30;0.00;;;;;;;9.59;78.79;98981.91;10420150;28;20570;-69
2024/01/04 07:21:13;;;;;;;1.27;0.00;;;;;;;9.51;79.09;98982.94;10425869;28;20045;-69
2024/01/04 07:26:15;;;;;;;0.82;0.00;;;;;;;9.61;79.01;98994.09;10456117;28;20104;-68
2024/01/04 07:31:17;;;;;;;0.20;0.10;;;;;;;9.63;78.99;98994.72;10476296;28;20071;-68
2024/01/04 07:36:18;;;;;;;0.10;0.00;;;;;;;9.60;78.90;99005.06;10459221;28;20235;-68
2024/01/04 07:41:20;;;;;;;1.48;0.10;;;;;;;9.70;78.76;99011.66;10475997;28;20079;-68
2024/01/04 07:46:21;;;;;;;0.50;0.10;;;;;;;9.71;79.06;99026.72;10462123;28;20064;-68
2024/01/04 07:51:23;;;;;;;0.70;0.00;;;;;;;9.70;79.21;99021.59;10471609;28;20049;-68
2024/01/04 07:56:25;;;;;;;0.15;0.05;;;;;;;9.73;79.43;99037.25;10480054;23;20063;-88
2024/01/04 08:01:26;;;;;;;1.33;0.00;;;;;;;9.77;79.04;99035.81;10432519;28;20105;-88
2024/01/04 08:06:28;;;;;;;1.35;0.17;;;;;;;9.78;79.21;99039.34;10429290;28;20728;-88
2024/01/04 08:11:30;;;;;;;0.55;0.10;;;;;;;9.80;78.88;99053.41;10427671;28;20044;-89
2024/01/04 08:16:31;;;;;;;1.52;0.10;;;;;;;9.84;78.97;99054.63;10433446;28;20087;-89
2024/01/04 08:21:33;;;;;;;1.98;0.10;;;;;;;9.90;78.67;99057.31;10431880;28;20113;-87
2024/01/04 08:26:42;;;;;;;1.15;0.10;;;;;;;9.95;78.45;99072.00;10393181;28;20052;-89
2024/01/04 08:31:44;;;;;;;0.13;0.00;;;;;;;9.96;78.45;99071.78;10400244;28;20049;-89
2024/01/04 08:36:45;;;;;;;0.47;0.10;;;;;;;10.05;78.26;99069.72;10393192;28;20091;-89
2024/01/04 08:41:47;;;;;;;0.45;0.08;;;;;;;10.06;78.68;99091.00;10396786;28;20065;-89
2024/01/04 08:46:50;;;;;;;0.82;0.40;;;;;;;10.13;78.39;99089.19;10411220;28;20049;-90
2024/01/04 08:51:51;;;;;;;0.57;0.10;;;;;;;10.16;78.36;99092.47;10393668;28;20391;-90
2024/01/04 08:56:54;;;;;;;1.15;0.10;;;;;;;10.20;78.67;99105.28;10412713;28;20045;-90
2024/01/04 09:01:55;;;;;;;1.45;0.00;;;;;;;10.10;78.25;99113.72;10415517;28;20456;-90
2024/01/04 09:06:58;;;;;;;1.05;0.20;;;;;;;9.99;78.31;99133.16;10426087;28;20037;-90
2024/01/04 09:11:59;;;;;;;0.40;0.10;;;;;;;10.03;78.51;99128.16;10432415;28;20057;-86
2024/01/04 09:17:01;;;;;;;0.68;0.10;;;;;;;10.11;78.23;99115.41;10403687;28;20041;-85
2024/01/04 09:22:04;;;;;;;0.98;0.10;;;;;;;10.18;77.91;99128.00;10403144;28;20367;-87
2024/01/04 09:27:05;;;;;;;0.00;0.00;;;;;;;10.28;77.53;99140.00;10381682;28;20531;-85
2024/01/04 09:32:07;;;;;;;0.10;0.00;;;;;;;10.31;77.26;99154.94;10395557;28;20045;-85
2024/01/04 09:37:08;;;;;;;1.08;0.00;;;;;;;10.23;77.38;99161.28;10403446;28;20394;-85
2024/01/04 09:42:14;;;;;;;0.00;0.00;;;;;;;10.09;77.80;99175.69;10383711;28;20072;-85
2024/01/04 09:47:22;;;;;;;2.45;0.10;;;;;;;10.09;77.54;99184.59;10409767;28;20049;-85
2024/01/04 09:52:24;;;;;;;0.52;0.10;;;;;;;10.11;77.84;99205.84;10404301;28;20052;-85
2024/01/04 09:57:26;;;;;;;0.25;0.10;;;;;;;10.24;77.14;99202.41;10400197;28;20062;-85
2024/01/04 10:02:28;;;;;;;0.47;0.05;;;;;;;10.24;77.63;99208.59;10409991;28;20056;-85
2024/01/04 10:07:37;;;;;;;0.80;0.10;;;;;;;10.29;77.53;99216.06;10388114;28;20139;-86
2024/01/04 10:12:42;;;;;;;0.20;0.00;;;;;;;10.26;77.73;99222.63;10401929;28;20076;-87
2024/01/04 10:17:45;;;;;;;1.88;0.28;;;;;;;10.30;77.59;99228.47;10392793;28;20061;-87
2024/01/04 10:22:47;;;;;;;1.17;0.20;;;;;;;10.15;78.54;99225.06;10399567;28;20405;-91
2024/01/04 10:27:56;;;;;;;1.50;0.00;;;;;;;10.18;78.22;99213.94;10376951;28;20042;-89
2024/01/04 10:32:58;;;;;;;1.98;0.20;;;;;;;10.12;78.65;99213.72;10390793;28;20067;-87
2024/01/04 10:38:00;;;;;;;2.55;0.08;;;;;;;10.07;78.98;99210.81;10380540;28;20049;-85
2024/01/04 10:43:02;;;;;;;1.60;0.20;;;;;;;10.19;78.65;99205.69;10366083;28;20132;-87
2024/01/04 10:48:05;;;;;;;2.28;0.10;;;;;;;10.29;78.43;99219.56;10410699;28;20049;-85
2024/01/04 10:53:12;;;;;;;0.20;0.00;;;;;;;10.17;78.55;99226.56;10396634;28;20041;-85
2024/01/04 10:58:14;;;;;;;1.55;0.00;;;;;;;10.14;78.92;99226.94;10421599;28;20078;-85
2024/01/04 11:03:15;;;;;;;0.10;0.00;;;;;;;10.22;78.45;99232.13;10442236;28;20436;-88
2024/01/04 11:08:17;;;;;;;0.10;0.10;;;;;;;10.37;77.84;99236.53;10448920;22;20060;-69
2024/01/04 11:13:19;;;;;;;0.30;0.00;;;;;;;10.40;77.88;99244.22;10423852;28;20136;-67
2024/01/04 11:18:44;;;;;;;0.28;0.00;;;;;;;10.42;77.75;99259.09;10419866;28;20385;-67
2024/01/04 11:24:00;;;;;;;0.98;0.05;;;;;;;10.45;76.76;99260.56;10424845;28;20123;-70
2024/01/04 11:29:08;;;;;;;0.55;0.00;;;;;;;10.37;77.46;99250.81;10425870;28;20048;-67
2024/01/04 11:34:12;;;;;;;0.00;0.00;;;;;;;10.36;76.55;99254.53;10424743;28;20044;-69
2024/01/04 11:39:25;;;;;;;0.50;0.05;;;;;;;10.44;76.54;99243.59;10423936;28;20439;-68
2024/01/04 11:44:35;;;;;;;1.25;0.10;;;;;;;10.57;76.01;99237.44;10417672;28;20567;-68
2024/01/04 11:49:46;;;;;;;3.05;0.10;;;;;;;10.78;75.37;99230.22;10461178;28;20025;-67
2024/01/04 11:54:54;;;;;;;0.40;0.10;;;;;;;10.86;75.10;99228.19;10469072;28;20056;-66
2024/01/04 11:59:55;;;;;;;0.47;0.10;;;;;;;10.77;73.90;99232.09;10465932;28;20037;-64
2024/01/04 12:04:57;;;;;;;0.77;0.10;;;;;;;10.62;73.10;99234.13;10471907;28;20063;-65
2024/01/04 12:09:59;;;;;;;1.92;0.10;;;;;;;10.59;72.82;99223.81;10466345;28;20029;-64
2024/01/04 12:15:03;;;;;;;2.78;0.20;;;;;;;10.48;72.63;99233.28;10455316;28;20050;-64
2024/01/04 12:20:09;;;;;;;3.13;0.20;;;;;;;10.48;72.48;99225.22;10457575;28;20053;-66
2024/01/04 12:25:11;;;;;;;3.40;0.15;;;;;;;10.57;71.84;99220.50;10468330;28;20041;-64
2024/01/04 12:30:13;;;;;;;3.50;0.30;;;;;;;10.66;71.14;99214.72;10464829;28;20055;-66
2024/01/04 12:35:17;;;;;;;3.30;0.32;;;;;;;10.60;70.84;99212.81;10469336;28;20033;-66
2024/01/04 12:40:19;;;;;;;2.35;0.30;;;;;;;10.58;70.21;99217.56;10473406;28;20048;-65
2024/01/04 12:45:22;;;;;;;5.80;0.30;;;;;;;10.70;69.58;99245.53;10467977;28;20033;-65
2024/01/04 12:50:24;;;;;;;3.65;0.60;;;;;;;10.80;68.90;99226.31;10452205;28;20068;-64
2024/01/04 12:55:26;;;;;;;5.20;0.60;;;;;;;10.88;69.39;99247.63;10463423;28;20049;-64
2024/01/04 13:00:27;;;;;;;2.20;0.47;;;;;;;10.93;68.10;99236.25;10452564;28;20071;-64
2024/01/04 13:05:29;;;;;;;6.50;0.47;;;;;;;10.97;68.19;99244.72;10452239;28;20040;-64
2024/01/04 13:10:31;;;;;;;5.03;0.30;;;;;;;11.02;67.75;99250.28;10447996;28;20063;-64
2024/01/04 13:15:33;;;;;;;2.00;0.22;;;;;;;11.09;66.55;99241.19;10451364;28;20025;-64
2024/01/04 13:20:34;;;;;;;5.85;0.22;;;;;;;11.22;66.52;99240.38;10466575;28;20033;-64
2024/01/04 13:25:36;;;;;;;7.72;1.05;;;;;;;11.28;65.88;99238.72;10465540;28;20036;-66
2024/01/04 13:30:38;;;;;;;9.88;0.73;;;;;;;11.25;64.66;99248.03;10466054;28;20060;-65
2024/01/04 13:35:39;;;;;;;2.55;0.20;;;;;;;11.41;64.37;99245.94;10453307;28;20037;-65
2024/01/04 13:40:41;;;;;;;7.05;0.60;;;;;;;11.46;64.43;99252.38;10462884;28;20025;-66
2024/01/04 13:45:43;;;;;;;8.20;0.82;;;;;;;11.50;64.94;99253.59;10438781;28;20076;-66
2024/01/04 13:50:45;;;;;;;4.38;0.35;;;;;;;11.42;63.76;99261.91;10441138;28;20032;-64
2024/01/04 13:55:47;;;;;;;3.95;0.22;;;;;;;11.48;64.11;99276.38;10460537;28;20049;-64
2024/01/04 14:00:49;;;;;;;4.60;0.20;;;;;;;11.41;63.25;99276.38;10455327;28;20028;-64
2024/01/04 14:05:51;;;;;;;2.08;0.20;;;;;;;11.38;62.88;99278.66;10428140;28;20049;-65
2024/01/04 14:10:55;;;;;;;3.00;0.20;;;;;;;11.30;61.83;99296.66;10397356;28;20106;-66
2024/01/04 14:15:57;;;;;;;1.60;0.73;;;;;;;11.35;61.94;99306.81;10386449;28;20104;-69
2024/01/04 14:20:59;;;;;;;5.38;0.32;;;;;;;11.39;62.20;99316.09;10400063;28;20407;-67
2024/01/04 14:26:01;;;;;;;4.50;0.20;;;;;;;11.41;62.51;99318.59;10389998;28;20050;-67
2024/01/04 14:31:05;;;;;;;5.55;0.47;;;;;;;11.16;62.96;99335.34;10390537;28;20081;-68
2024/01/04 14:36:09;;;;;;;2.58;0.20;;;;;;;11.13;62.00;99333.06;10406802;28;20096;-67
2024/01/04 14:41:11;;;;;;;3.60;0.20;;;;;;;11.08;61.75;99338.25;10401644;28;20049;-69
2024/01/04 14:46:28;;;;;;;1.98;0.20;;;;;;;11.05;62.45;99328.72;10391222;28;20041;-68
2024/01/04 14:51:30;;;;;;;6.27;0.70;;;;;;;11.00;62.76;99330.34;10419149;28;20056;-66
2024/01/04 14:56:36;;;;;;;1.63;0.52;;;;;;;10.99;62.98;99329.53;10415409;28;20050;-68
2024/01/04 15:01:38;;;;;;;1.52;0.30;;;;;;;10.95;63.20;99343.59;10423654;28;20046;-64
2024/01/04 15:06:39;;;;;;;6.82;0.40;;;;;;;10.84;63.99;99339.63;10425425;28;20103;-64
2024/01/04 15:11:41;;;;;;;2.30;0.47;;;;;;;10.78;64.23;99352.03;10423914;28;20041;-64
2024/01/04 15:16:44;;;;;;;4.55;0.20;;;;;;;10.64;65.06;99353.84;10434344;28;20068;-61
2024/01/04 15:21:46;;;;;;;2.20;0.30;;;;;;;10.57;65.25;99365.59;10427574;28;20033;-61
2024/01/04 15:26:48;;;;;;;8.75;0.55;;;;;;;10.50;65.65;99374.47;10425166;28;20079;-64
2024/01/04 15:31:49;;;;;;;6.18;0.45;;;;;;;10.42;66.04;99374.59;10426577;28;20510;-60
2024/01/04 15:36:52;;;;;;;2.17;0.20;;;;;;;10.35;66.60;99371.06;10431829;28;20045;-60
2024/01/04 15:41:54;;;;;;;6.25;0.60;;;;;;;10.23;66.67;99369.91;10436062;28;20152;-62
2024/01/04 15:46:56;;;;;;;4.45;0.60;;;;;;;10.13;66.61;99389.09;10439858;28;20056;-61
2024/01/04 15:51:58;;;;;;;5.18;0.57;;;;;;;10.08;67.07;99387.00;10427083;28;20056;-61
2024/01/04 15:56:59;;;;;;;0.63;0.30;;;;;;;9.97;67.44;99384.00;10422482;28;20049;-61
2024/01/04 16:02:01;;;;;;;3.42;1.00;;;;;;;9.91;66.84;99388.31;10430678;28;20049;-60
2024/01/04 16:07:03;;;;;;;5.80;0.40;;;;;;;9.94;67.08;99393.31;10435585;28;20087;-61
2024/01/04 16:12:06;;;;;;;5.43;1.35;;;;;;;9.91;67.14;99388.31;10425138;28;20056;-62
2024/01/04 16:17:07;;;;;;;1.88;0.50;;;;;;;9.82;67.54;99394.88;10416870;28;20112;-61
2024/01/04 16:22:09;;;;;;;1.25;0.30;;;;;;;9.81;67.83;99398.56;10443293;28;20069;-61
2024/01/04 16:27:10;;;;;;;6.00;0.40;;;;;;;9.70;67.96;99400.75;10431164;28;20150;-66
2024/01/04 16:32:12;;;;;;;6.10;0.50;;;;;;;9.60;68.55;99400.25;10415440;28;20044;-68
2024/01/04 16:37:13;;;;;;;3.30;0.77;;;;;;;9.57;68.41;99414.06;10421304;28;20071;-67
2024/01/04 16:42:15;;;;;;;5.82;0.40;;;;;;;9.49;68.43;99415.00;10398745;28;20091;-64
2024/01/04 16:47:17;;;;;;;7.53;0.85;;;;;;;9.38;68.86;99410.19;10418127;28;20061;-66
2024/01/04 16:52:19;;;;;;;3.00;0.65;;;;;;;9.36;68.73;99416.72;10417589;28;20088;-69
2024/01/04 16:57:20;;;;;;;5.75;1.08;;;;;;;9.28;68.88;99418.53;10420964;28;20724;-66
2024/01/04 17:02:22;;;;;;;4.63;0.85;;;;;;;9.23;69.27;99420.13;10407746;28;20057;-67
2024/01/04 17:07:23;;;;;;;4.13;1.45;;;;;;;9.18;69.33;99417.16;10417998;28;20168;-63
2024/01/04 17:12:25;;;;;;;5.57;1.27;;;;;;;9.10;69.70;99416.28;10413825;28;20450;-66
2024/01/04 17:17:26;;;;;;;9.57;0.50;;;;;;;9.07;69.75;99413.16;10413000;28;20157;-67
2024/01/04 17:22:28;;;;;;;7.22;0.60;;;;;;;8.98;69.88;99416.94;10414317;28;20076;-65
2024/01/04 17:27:30;;;;;;;4.72;0.90;;;;;;;9.03;69.75;99418.06;10405503;28;20056;-60
2024/01/04 17:32:31;;;;;;;3.53;0.52;;;;;;;8.90;70.24;99413.34;10421945;28;20056;-60
2024/01/04 17:37:33;;;;;;;4.22;1.17;;;;;;;8.79;70.56;99427.25;10411648;28;20072;-59
2024/01/04 17:42:38;;;;;;;5.78;0.60;;;;;;;8.72;70.61;99421.81;10422948;28;20061;-59
2024/01/04 17:47:44;;;;;;;6.93;0.50;;;;;;;8.68;70.36;99417.00;10402382;28;20042;-58
2024/01/04 17:52:46;;;;;;;6.53;0.80;;;;;;;8.63;70.70;99414.91;10425503;28;20128;-59
2024/01/04 17:57:47;;;;;;;9.60;0.82;;;;;;;8.60;70.69;99419.81;10402664;28;20120;-59
2024/01/04 18:02:49;;;;;;;9.18;0.95;;;;;;;8.52;70.80;99418.88;10399657;28;20479;-58
2024/01/04 18:07:50;;;;;;;15.13;1.48;;;;;;;8.51;70.59;99413.69;10399735;28;20053;-59
2024/01/04 18:12:52;;;;;;;9.48;1.65;;;;;;;8.44;70.66;99413.63;10386879;28;20037;-60
2024/01/04 18:17:53;;;;;;;7.35;0.68;;;;;;;8.39;70.82;99423.19;10416842;28;20568;-59
2024/01/04 18:22:55;;;;;;;12.18;2.25;;;;;;;8.33;70.87;99432.78;10396887;28;20123;-59
2024/01/04 18:27:57;;;;;;;15.90;5.00;;;;;;;8.25;71.14;99440.91;10416879;28;20407;-58
2024/01/04 18:32:58;;;;;;;15.52;2.35;;;;;;;8.18;71.15;99440.81;10406799;28;20059;-59
2024/01/04 18:38:01;;;;;;;12.35;2.40;;;;;;;8.20;71.37;99443.31;10380450;28;20045;-58
2024/01/04 18:43:02;;;;;;;7.57;1.05;;;;;;;8.22;71.15;99443.97;10410407;28;20052;-59
2024/01/04 18:48:04;;;;;;;8.88;1.48;;;;;;;8.19;71.11;99441.63;10410787;28;20049;-60
2024/01/04 18:53:06;;;;;;;3.15;0.80;;;;;;;8.09;71.49;99442.72;10409193;28;20575;-58
2024/01/04 18:58:07;;;;;;;9.73;1.38;;;;;;;8.02;71.34;99451.69;10413415;28;20054;-58
2024/01/04 19:03:09;;;;;;;5.05;0.98;;;;;;;7.98;71.66;99453.03;10408953;28;20045;-59
2024/01/04 19:08:12;;;;;;;10.18;1.00;;;;;;;7.90;71.26;99446.78;10423131;28;20061;-59
2024/01/04 19:13:13;;;;;;;10.68;2.00;;;;;;;7.90;71.64;99443.28;10398587;28;20053;-58
2024/01/04 19:18:15;;;;;;;7.05;1.52;;;;;;;7.87;71.81;99441.75;10420185;28;20136;-59
2024/01/04 19:23:17;;;;;;;6.47;1.48;;;;;;;7.88;71.34;99446.13;10427056;28;20053;-58
2024/01/04 19:28:18;;;;;;;10.63;1.88;;;;;;;7.93;71.33;99443.72;10412836;28;20144;-60
2024/01/04 19:33:20;;;;;;;9.35;2.28;;;;;;;7.95;71.95;99419.47;10414037;28;20396;-58
2024/01/04 19:38:22;;;;;;;9.02;3.50;;;;;;;7.87;71.62;99425.72;10429773;28;20087;-58
2024/01/04 19:43:24;;;;;;;11.80;2.38;;;;;;;7.85;71.49;99424.25;10427230;28;20136;-58
2024/01/04 19:48:25;;;;;;;12.70;3.55;;;;;;;7.80;71.77;99435.50;10430035;28;20068;-57
2024/01/04 19:53:27;;;;;;;16.02;5.13;;;;;;;7.77;71.93;99441.19;10426146;28;20061;-58
2024/01/04 19:58:30;;;;;;;14.90;4.32;;;;;;;7.75;71.75;99436.00;10410953;28;20136;-58
2024/01/04 20:03:32;;;;;;;14.18;4.97;;;;;;;7.75;72.14;99430.66;10427789;28;20045;-57
2024/01/04 20:08:34;;;;;;;25.65;7.43;;;;;;;7.80;72.05;99416.78;10426113;28;20055;-58
2024/01/04 20:13:36;;;;;;;21.20;9.90;;;;;;;7.78;71.78;99415.25;10419276;28;20049;-58
2024/01/04 20:18:38;;;;;;;19.15;6.57;;;;;;;7.72;72.49;99419.50;10409039;28;20128;-58
2024/01/04 20:23:39;;;;;;;15.75;4.63;;;;;;;7.65;72.83;99414.03;10408394;28;20120;-58
2024/01/04 20:28:41;;;;;;;15.00;5.75;;;;;;;7.75;72.79;99413.78;10387441;28;20052;-57
2024/01/04 20:33:43;;;;;;;13.25;4.35;;;;;;;7.89;72.24;99428.22;10414327;28;20051;-58
2024/01/04 20:38:44;;;;;;;16.08;6.18;;;;;;;8.05;72.44;99424.56;10423180;28;20056;-58
2024/01/04 20:43:46;;;;;;;18.08;7.00;;;;;;;8.04;72.75;99431.75;10426390;28;20049;-58
2024/01/04 20:48:47;;;;;;;21.90;6.15;;;;;;;8.21;72.18;99420.88;10426193;28;20869;-58
2024/01/04 20:53:49;;;;;;;13.75;4.80;;;;;;;8.29;72.22;99410.06;10410329;28;20129;-58
2024/01/04 20:58:52;;;;;;;16.95;5.95;;;;;;;8.37;72.28;99393.09;10400576;28;20709;-58
2024/01/04 21:03:53;;;;;;;18.27;5.25;;;;;;;8.42;72.10;99383.50;10422431;28;20258;-59
2024/01/04 21:08:56;;;;;;;15.55;4.63;;;;;;;8.51;72.25;99382.41;10408695;28;20041;-59
2024/01/04 21:13:57;;;;;;;20.15;6.32;;;;;;;8.51;72.29;99386.91;10414402;28;20045;-59
2024/01/04 21:18:59;;;;;;;19.02;6.47;;;;;;;8.57;72.43;99398.72;10413244;28;20049;-58
2024/01/04 21:24:00;;;;;;;19.83;7.50;;;;;;;8.68;72.47;99406.31;10393141;28;20115;-58
2024/01/04 21:29:03;;;;;;;23.05;8.02;;;;;;;8.76;71.99;99398.16;10413752;28;20049;-58
2024/01/04 21:34:04;;;;;;;16.95;7.60;;;;;;;8.86;72.03;99389.81;10401715;28;20528;-59
2024/01/04 21:39:06;;;;;;;24.67;7.75;;;;;;;8.95;72.24;99387.88;10409877;28;20037;-58
2024/01/04 21:44:07;;;;;;;10.35;4.53;;;;;;;8.98;72.20;99379.44;10412937;28;20140;-58
2024/01/04 21:49:09;;;;;;;11.63;3.72;;;;;;;9.04;72.36;99359.91;10412391;28;20111;-59
2024/01/04 21:54:10;;;;;;;13.07;3.97;;;;;;;9.12;72.25;99365.13;10406271;28;20586;-59
2024/01/04 21:59:12;;;;;;;11.90;2.85;;;;;;;9.16;72.15;99368.28;10409071;28;20080;-58
2024/01/04 22:04:13;;;;;;;11.00;3.42;;;;;;;9.12;72.22;99373.19;10411001;28;20048;-59
2024/01/04 22:09:15;;;;;;;8.95;2.80;;;;;;;9.18;72.62;99364.38;10392209;28;20049;-58
2024/01/04 22:14:17;;;;;;;18.17;3.03;;;;;;;9.23;72.14;99375.38;10413021;28;20052;-58
2024/01/04 22:19:18;;;;;;;10.73;3.17;;;;;;;9.29;72.07;99374.59;10410248;28;20049;-60
2024/01/04 22:24:20;;;;;;;10.25;4.38;;;;;;;9.33;71.93;99370.50;10408665;28;20184;-59
2024/01/04 22:29:22;;;;;;;15.05;4.05;;;;;;;9.34;72.11;99360.63;10410031;28;20492;-60
2024/01/04 22:34:23;;;;;;;12.82;4.43;;;;;;;9.34;72.12;99349.91;10419022;28;20045;-60
2024/01/04 22:39:25;;;;;;;10.90;3.65;;;;;;;9.33;72.05;99334.81;10421066;28;20045;-61
2024/01/04 22:44:26;;;;;;;8.85;2.83;;;;;;;9.39;72.22;99336.72;10425070;28;20046;-60
2024/01/04 22:49:28;;;;;;;11.77;4.00;;;;;;;9.42;71.96;99325.63;10416339;28;20045;-61
2024/01/04 22:54:29;;;;;;;8.23;2.90;;;;;;;9.45;72.10;99335.94;10417433;28;20850;-60
2024/01/04 22:59:31;;;;;;;14.93;3.75;;;;;;;9.50;71.79;99324.66;10424206;28;20076;-60
2024/01/04 23:04:34;;;;;;;10.68;3.53;;;;;;;9.55;72.14;99316.00;10428307;28;20033;-61
2024/01/04 23:09:36;;;;;;;16.50;3.72;;;;;;;9.57;72.08;99305.91;10404623;28;20099;-60
2024/01/04 23:14:37;;;;;;;15.65;3.92;;;;;;;9.58;72.17;99296.81;10423430;28;20724;-60
2024/01/04 23:19:39;;;;;;;14.48;3.63;;;;;;;9.65;71.83;99301.22;10419725;28;20044;-59
2024/01/04 23:24:44;;;;;;;8.82;2.83;;;;;;;9.70;71.96;99289.91;10425369;28;20041;-60
2024/01/04 23:29:45;;;;;;;15.05;2.80;;;;;;;9.69;71.95;99288.25;10425535;28;20052;-60